sensor_id;sensor_type;location;lat;lon;timestamp;P1;durP1;ratioP1;P2;durP2;ratioP2
11535;SDS011;5824;49.336;8.652;2024-02-04T00:00:20;2.13;;;1.90;;
11535;SDS011;5824;49.336;8.652;2024-02-04T00:02:46;2.90;;;2.00;;
11535;SDS011;5824;49.336;8.652;2024-02-04T00:05:11;4.00;;;2.20;;
11535;SDS011;5824;49.336;8.652;2024-02-04T00:07:37;3.37;;;2.53;;
11535;SDS011;5824;49.336;8.652;2024-02-04T00:10:02;4.57;;;3.00;;
11535;SDS011;5824;49.336;8.652;2024-02-04T00:12:28;6.60;;;2.90;;
11535;SDS011;5824;49.336;8.652;2024-02-04T00:14:54;6.33;;;3.20;;
11535;SDS011;5824;49.336;8.652;2024-02-04T00:17:19;3.80;;;3.00;;
11535;SDS011;5824;49.336;8.652;2024-02-04T00:19:44;5.10;;;3.17;;
11535;SDS011;5824;49.336;8.652;2024-02-04T00:22:10;3.87;;;2.80;;
11535;SDS011;5824;49.336;8.652;2024-02-04T00:24:35;3.37;;;3.00;;
11535;SDS011;5824;49.336;8.652;2024-02-04T00:27:01;7.47;;;3.70;;
11535;SDS011;5824;49.336;8.652;2024-02-04T00:29:27;7.10;;;3.37;;
11535;SDS011;5824;49.336;8.652;2024-02-04T00:31:52;4.73;;;3.20;;
11535;SDS011;5824;49.336;8.652;2024-02-04T00:34:18;5.90;;;3.40;;
11535;SDS011;5824;49.336;8.652;2024-02-04T00:36:43;4.43;;;3.50;;
11535;SDS011;5824;49.336;8.652;2024-02-04T00:39:09;4.60;;;3.47;;
11535;SDS011;5824;49.336;8.652;2024-02-04T00:41:34;4.43;;;3.23;;
11535;SDS011;5824;49.336;8.652;2024-02-04T00:44:00;4.27;;;3.50;;
11535;SDS011;5824;49.336;8.652;2024-02-04T00:46:26;5.73;;;4.37;;
11535;SDS011;5824;49.336;8.652;2024-02-04T00:48:52;6.13;;;3.73;;
11535;SDS011;5824;49.336;8.652;2024-02-04T00:51:17;5.50;;;3.43;;
11535;SDS011;5824;49.336;8.652;2024-02-04T00:53:44;5.90;;;3.77;;
11535;SDS011;5824;49.336;8.652;2024-02-04T00:56:10;5.30;;;3.67;;
11535;SDS011;5824;49.336;8.652;2024-02-04T00:58:36;4.77;;;3.50;;
11535;SDS011;5824;49.336;8.652;2024-02-04T01:01:02;5.03;;;3.67;;
11535;SDS011;5824;49.336;8.652;2024-02-04T01:03:28;5.77;;;3.87;;
11535;SDS011;5824;49.336;8.652;2024-02-04T01:05:54;7.03;;;3.60;;
11535;SDS011;5824;49.336;8.652;2024-02-04T01:08:20;5.37;;;3.70;;
11535;SDS011;5824;49.336;8.652;2024-02-04T01:10:46;4.60;;;3.57;;
11535;SDS011;5824;49.336;8.652;2024-02-04T01:13:12;4.70;;;3.53;;
11535;SDS011;5824;49.336;8.652;2024-02-04T01:15:38;5.20;;;3.33;;
11535;SDS011;5824;49.336;8.652;2024-02-04T01:18:04;4.13;;;3.40;;
11535;SDS011;5824;49.336;8.652;2024-02-04T01:20:29;5.80;;;3.73;;
11535;SDS011;5824;49.336;8.652;2024-02-04T01:22:55;4.97;;;3.20;;
11535;SDS011;5824;49.336;8.652;2024-02-04T01:25:20;5.40;;;3.60;;
11535;SDS011;5824;49.336;8.652;2024-02-04T01:27:46;4.83;;;3.27;;
11535;SDS011;5824;49.336;8.652;2024-02-04T01:30:11;6.77;;;3.90;;
11535;SDS011;5824;49.336;8.652;2024-02-04T01:32:37;5.27;;;3.83;;
11535;SDS011;5824;49.336;8.652;2024-02-04T01:35:02;5.40;;;3.90;;
11535;SDS011;5824;49.336;8.652;2024-02-04T01:37:28;4.83;;;3.70;;
11535;SDS011;5824;49.336;8.652;2024-02-04T01:39:54;5.20;;;4.17;;
11535;SDS011;5824;49.336;8.652;2024-02-04T01:42:19;4.83;;;3.30;;
11535;SDS011;5824;49.336;8.652;2024-02-04T01:44:45;4.73;;;3.47;;
11535;SDS011;5824;49.336;8.652;2024-02-04T01:47:11;4.70;;;3.67;;
11535;SDS011;5824;49.336;8.652;2024-02-04T01:49:37;7.83;;;4.17;;
11535;SDS011;5824;49.336;8.652;2024-02-04T01:52:03;5.20;;;4.00;;
11535;SDS011;5824;49.336;8.652;2024-02-04T01:54:30;5.63;;;4.07;;
11535;SDS011;5824;49.336;8.652;2024-02-04T01:56:56;6.80;;;3.73;;
11535;SDS011;5824;49.336;8.652;2024-02-04T01:59:26;6.30;;;4.30;;
11535;SDS011;5824;49.336;8.652;2024-02-04T02:01:55;5.43;;;3.80;;
11535;SDS011;5824;49.336;8.652;2024-02-04T02:04:27;6.40;;;4.23;;
11535;SDS011;5824;49.336;8.652;2024-02-04T02:06:53;4.70;;;3.43;;
11535;SDS011;5824;49.336;8.652;2024-02-04T02:09:19;5.53;;;3.40;;
11535;SDS011;5824;49.336;8.652;2024-02-04T02:11:51;4.93;;;3.30;;
11535;SDS011;5824;49.336;8.652;2024-02-04T02:14:30;5.20;;;3.80;;
11535;SDS011;5824;49.336;8.652;2024-02-04T02:17:00;8.33;;;4.40;;
11535;SDS011;5824;49.336;8.652;2024-02-04T02:19:46;4.67;;;3.60;;
11535;SDS011;5824;49.336;8.652;2024-02-04T02:24:57;8.60;;;3.60;;
11535;SDS011;5824;49.336;8.652;2024-02-04T02:27:24;6.90;;;4.17;;
11535;SDS011;5824;49.336;8.652;2024-02-04T02:29:49;6.90;;;4.73;;
11535;SDS011;5824;49.336;8.652;2024-02-04T02:32:15;5.00;;;3.47;;
11535;SDS011;5824;49.336;8.652;2024-02-04T02:34:41;6.47;;;4.10;;
11535;SDS011;5824;49.336;8.652;2024-02-04T02:42:24;6.07;;;3.80;;
11535;SDS011;5824;49.336;8.652;2024-02-04T02:44:51;5.20;;;4.00;;
11535;SDS011;5824;49.336;8.652;2024-02-04T02:47:18;6.17;;;3.90;;
11535;SDS011;5824;49.336;8.652;2024-02-04T02:49:45;6.67;;;4.07;;
11535;SDS011;5824;49.336;8.652;2024-02-04T02:52:11;5.23;;;3.47;;
11535;SDS011;5824;49.336;8.652;2024-02-04T02:54:36;4.50;;;3.33;;
11535;SDS011;5824;49.336;8.652;2024-02-04T02:57:02;4.93;;;3.30;;
11535;SDS011;5824;49.336;8.652;2024-02-04T02:59:28;5.60;;;3.90;;
11535;SDS011;5824;49.336;8.652;2024-02-04T03:01:53;5.87;;;4.20;;
11535;SDS011;5824;49.336;8.652;2024-02-04T03:04:18;4.50;;;3.23;;
11535;SDS011;5824;49.336;8.652;2024-02-04T03:06:44;5.60;;;4.03;;
11535;SDS011;5824;49.336;8.652;2024-02-04T03:09:09;5.63;;;3.80;;
11535;SDS011;5824;49.336;8.652;2024-02-04T03:11:36;4.10;;;3.57;;
11535;SDS011;5824;49.336;8.652;2024-02-04T03:14:02;5.67;;;3.60;;
11535;SDS011;5824;49.336;8.652;2024-02-04T03:16:28;5.70;;;3.50;;
11535;SDS011;5824;49.336;8.652;2024-02-04T03:18:53;6.53;;;3.80;;
11535;SDS011;5824;49.336;8.652;2024-02-04T03:21:19;7.03;;;3.53;;
11535;SDS011;5824;49.336;8.652;2024-02-04T03:23:45;4.50;;;3.33;;
11535;SDS011;5824;49.336;8.652;2024-02-04T03:26:11;7.60;;;3.83;;
11535;SDS011;5824;49.336;8.652;2024-02-04T03:28:36;5.80;;;3.90;;
11535;SDS011;5824;49.336;8.652;2024-02-04T03:31:02;4.30;;;3.27;;
11535;SDS011;5824;49.336;8.652;2024-02-04T03:33:28;5.57;;;3.90;;
11535;SDS011;5824;49.336;8.652;2024-02-04T03:35:53;5.80;;;3.80;;
11535;SDS011;5824;49.336;8.652;2024-02-04T03:38:19;4.60;;;3.30;;
11535;SDS011;5824;49.336;8.652;2024-02-04T03:40:45;5.23;;;3.60;;
11535;SDS011;5824;49.336;8.652;2024-02-04T03:43:11;5.63;;;3.17;;
11535;SDS011;5824;49.336;8.652;2024-02-04T03:45:36;4.70;;;3.40;;
11535;SDS011;5824;49.336;8.652;2024-02-04T03:48:02;5.47;;;3.20;;
11535;SDS011;5824;49.336;8.652;2024-02-04T03:50:28;4.30;;;3.00;;
11535;SDS011;5824;49.336;8.652;2024-02-04T03:52:54;5.20;;;3.53;;
11535;SDS011;5824;49.336;8.652;2024-02-04T03:55:19;4.10;;;2.80;;
11535;SDS011;5824;49.336;8.652;2024-02-04T03:57:45;4.53;;;3.27;;
11535;SDS011;5824;49.336;8.652;2024-02-04T04:00:10;8.97;;;3.00;;
11535;SDS011;5824;49.336;8.652;2024-02-04T04:02:36;3.27;;;2.43;;
11535;SDS011;5824;49.336;8.652;2024-02-04T04:05:02;3.17;;;2.83;;
11535;SDS011;5824;49.336;8.652;2024-02-04T04:07:28;3.90;;;2.80;;
11535;SDS011;5824;49.336;8.652;2024-02-04T04:09:53;3.17;;;2.40;;
11535;SDS011;5824;49.336;8.652;2024-02-04T04:12:19;3.47;;;2.50;;
11535;SDS011;5824;49.336;8.652;2024-02-04T04:14:44;3.47;;;2.30;;
11535;SDS011;5824;49.336;8.652;2024-02-04T04:17:10;4.27;;;2.40;;
11535;SDS011;5824;49.336;8.652;2024-02-04T04:19:35;2.80;;;2.43;;
11535;SDS011;5824;49.336;8.652;2024-02-04T04:22:02;2.00;;;1.80;;
11535;SDS011;5824;49.336;8.652;2024-02-04T04:24:28;2.30;;;1.80;;
11535;SDS011;5824;49.336;8.652;2024-02-04T04:26:54;2.57;;;1.83;;
11535;SDS011;5824;49.336;8.652;2024-02-04T04:29:19;2.80;;;1.73;;
11535;SDS011;5824;49.336;8.652;2024-02-04T04:31:45;4.50;;;1.80;;
11535;SDS011;5824;49.336;8.652;2024-02-04T04:34:11;2.70;;;2.00;;
11535;SDS011;5824;49.336;8.652;2024-02-04T04:36:36;2.73;;;2.27;;
11535;SDS011;5824;49.336;8.652;2024-02-04T04:39:02;3.17;;;2.00;;
11535;SDS011;5824;49.336;8.652;2024-02-04T04:41:27;2.20;;;2.00;;
11535;SDS011;5824;49.336;8.652;2024-02-04T04:43:53;2.13;;;1.70;;
11535;SDS011;5824;49.336;8.652;2024-02-04T04:46:19;2.17;;;1.70;;
11535;SDS011;5824;49.336;8.652;2024-02-04T04:48:45;2.10;;;1.80;;
11535;SDS011;5824;49.336;8.652;2024-02-04T04:51:11;2.43;;;2.00;;
11535;SDS011;5824;49.336;8.652;2024-02-04T04:53:37;2.50;;;1.70;;
11535;SDS011;5824;49.336;8.652;2024-02-04T04:56:02;3.33;;;1.93;;
11535;SDS011;5824;49.336;8.652;2024-02-04T04:58:28;2.77;;;2.00;;
11535;SDS011;5824;49.336;8.652;2024-02-04T05:00:54;2.10;;;1.90;;
11535;SDS011;5824;49.336;8.652;2024-02-04T05:03:19;3.00;;;2.37;;
11535;SDS011;5824;49.336;8.652;2024-02-04T05:05:45;2.27;;;1.87;;
11535;SDS011;5824;49.336;8.652;2024-02-04T05:08:11;4.50;;;2.30;;
11535;SDS011;5824;49.336;8.652;2024-02-04T05:10:38;1.90;;;1.70;;
11535;SDS011;5824;49.336;8.652;2024-02-04T05:13:03;2.03;;;1.83;;
11535;SDS011;5824;49.336;8.652;2024-02-04T05:15:29;2.50;;;1.80;;
11535;SDS011;5824;49.336;8.652;2024-02-04T05:17:54;2.13;;;1.80;;
11535;SDS011;5824;49.336;8.652;2024-02-04T05:20:20;2.10;;;1.70;;
11535;SDS011;5824;49.336;8.652;2024-02-04T05:22:46;2.93;;;1.80;;
11535;SDS011;5824;49.336;8.652;2024-02-04T05:25:11;3.20;;;1.77;;
11535;SDS011;5824;49.336;8.652;2024-02-04T05:27:37;1.80;;;1.60;;
11535;SDS011;5824;49.336;8.652;2024-02-04T05:30:03;2.00;;;1.70;;
11535;SDS011;5824;49.336;8.652;2024-02-04T05:32:29;2.27;;;1.77;;
11535;SDS011;5824;49.336;8.652;2024-02-04T05:34:55;3.07;;;1.50;;
11535;SDS011;5824;49.336;8.652;2024-02-04T05:37:20;2.33;;;1.70;;
11535;SDS011;5824;49.336;8.652;2024-02-04T05:39:46;1.60;;;1.50;;
11535;SDS011;5824;49.336;8.652;2024-02-04T05:42:12;2.10;;;1.50;;
11535;SDS011;5824;49.336;8.652;2024-02-04T05:44:38;2.13;;;1.60;;
11535;SDS011;5824;49.336;8.652;2024-02-04T05:47:03;1.77;;;1.67;;
11535;SDS011;5824;49.336;8.652;2024-02-04T05:49:29;1.97;;;1.53;;
11535;SDS011;5824;49.336;8.652;2024-02-04T05:51:54;3.40;;;1.77;;
11535;SDS011;5824;49.336;8.652;2024-02-04T05:54:20;1.83;;;1.60;;
11535;SDS011;5824;49.336;8.652;2024-02-04T05:56:45;2.10;;;1.70;;
11535;SDS011;5824;49.336;8.652;2024-02-04T05:59:12;2.07;;;1.60;;
11535;SDS011;5824;49.336;8.652;2024-02-04T06:01:38;1.93;;;1.70;;
11535;SDS011;5824;49.336;8.652;2024-02-04T06:04:03;2.60;;;1.60;;
11535;SDS011;5824;49.336;8.652;2024-02-04T06:06:29;1.77;;;1.40;;
11535;SDS011;5824;49.336;8.652;2024-02-04T06:08:54;1.53;;;1.43;;
11535;SDS011;5824;49.336;8.652;2024-02-04T06:11:20;2.40;;;1.67;;
11535;SDS011;5824;49.336;8.652;2024-02-04T06:13:45;1.90;;;1.53;;
11535;SDS011;5824;49.336;8.652;2024-02-04T06:16:11;2.23;;;1.70;;
11535;SDS011;5824;49.336;8.652;2024-02-04T06:18:37;2.23;;;1.70;;
11535;SDS011;5824;49.336;8.652;2024-02-04T06:21:03;2.07;;;1.43;;
11535;SDS011;5824;49.336;8.652;2024-02-04T06:23:29;2.17;;;1.50;;
11535;SDS011;5824;49.336;8.652;2024-02-04T06:25:55;4.20;;;1.80;;
11535;SDS011;5824;49.336;8.652;2024-02-04T06:28:20;3.53;;;1.47;;
11535;SDS011;5824;49.336;8.652;2024-02-04T06:30:46;3.77;;;1.47;;
11535;SDS011;5824;49.336;8.652;2024-02-04T06:33:11;3.80;;;1.90;;
11535;SDS011;5824;49.336;8.652;2024-02-04T06:35:37;1.90;;;1.53;;
11535;SDS011;5824;49.336;8.652;2024-02-04T06:38:02;1.93;;;1.60;;
11535;SDS011;5824;49.336;8.652;2024-02-04T06:40:28;3.23;;;2.03;;
11535;SDS011;5824;49.336;8.652;2024-02-04T06:42:53;1.80;;;1.60;;
11535;SDS011;5824;49.336;8.652;2024-02-04T06:45:19;1.90;;;1.63;;
11535;SDS011;5824;49.336;8.652;2024-02-04T06:47:44;2.13;;;1.40;;
11535;SDS011;5824;49.336;8.652;2024-02-04T06:50:10;2.50;;;1.73;;
11535;SDS011;5824;49.336;8.652;2024-02-04T06:52:39;2.50;;;1.43;;
11535;SDS011;5824;49.336;8.652;2024-02-04T06:55:07;3.07;;;1.57;;
11535;SDS011;5824;49.336;8.652;2024-02-04T06:57:32;3.37;;;1.37;;
11535;SDS011;5824;49.336;8.652;2024-02-04T06:59:58;1.60;;;1.50;;
11535;SDS011;5824;49.336;8.652;2024-02-04T07:02:23;2.03;;;1.50;;
11535;SDS011;5824;49.336;8.652;2024-02-04T07:04:49;2.30;;;1.70;;
11535;SDS011;5824;49.336;8.652;2024-02-04T07:07:14;2.13;;;1.73;;
11535;SDS011;5824;49.336;8.652;2024-02-04T07:09:40;1.80;;;1.50;;
11535;SDS011;5824;49.336;8.652;2024-02-04T07:12:05;3.90;;;1.60;;
11535;SDS011;5824;49.336;8.652;2024-02-04T07:14:31;2.40;;;1.73;;
11535;SDS011;5824;49.336;8.652;2024-02-04T07:16:57;2.00;;;1.50;;
11535;SDS011;5824;49.336;8.652;2024-02-04T07:19:22;2.00;;;1.60;;
11535;SDS011;5824;49.336;8.652;2024-02-04T07:21:48;2.10;;;1.83;;
11535;SDS011;5824;49.336;8.652;2024-02-04T07:24:13;3.47;;;1.80;;
11535;SDS011;5824;49.336;8.652;2024-02-04T07:26:39;2.90;;;1.80;;
11535;SDS011;5824;49.336;8.652;2024-02-04T07:29:04;2.53;;;1.90;;
11535;SDS011;5824;49.336;8.652;2024-02-04T07:31:30;2.37;;;1.80;;
11535;SDS011;5824;49.336;8.652;2024-02-04T07:33:55;2.23;;;1.90;;
11535;SDS011;5824;49.336;8.652;2024-02-04T07:36:21;2.33;;;2.07;;
11535;SDS011;5824;49.336;8.652;2024-02-04T07:38:46;3.07;;;1.80;;
11535;SDS011;5824;49.336;8.652;2024-02-04T07:41:15;3.20;;;2.17;;
11535;SDS011;5824;49.336;8.652;2024-02-04T07:43:41;4.23;;;2.10;;
11535;SDS011;5824;49.336;8.652;2024-02-04T07:46:08;3.00;;;2.23;;
11535;SDS011;5824;49.336;8.652;2024-02-04T07:48:34;2.20;;;1.97;;
11535;SDS011;5824;49.336;8.652;2024-02-04T07:51:00;3.20;;;2.00;;
11535;SDS011;5824;49.336;8.652;2024-02-04T07:53:25;3.03;;;2.00;;
11535;SDS011;5824;49.336;8.652;2024-02-04T07:55:51;3.00;;;2.30;;
11535;SDS011;5824;49.336;8.652;2024-02-04T07:58:16;2.67;;;2.40;;
11535;SDS011;5824;49.336;8.652;2024-02-04T08:00:42;2.70;;;2.40;;
11535;SDS011;5824;49.336;8.652;2024-02-04T08:03:07;2.83;;;2.30;;
11535;SDS011;5824;49.336;8.652;2024-02-04T08:05:33;3.03;;;2.40;;
11535;SDS011;5824;49.336;8.652;2024-02-04T08:08:00;4.93;;;2.00;;
11535;SDS011;5824;49.336;8.652;2024-02-04T08:10:26;3.40;;;2.20;;
11535;SDS011;5824;49.336;8.652;2024-02-04T08:12:52;3.43;;;2.40;;
11535;SDS011;5824;49.336;8.652;2024-02-04T08:15:18;2.80;;;2.40;;
11535;SDS011;5824;49.336;8.652;2024-02-04T08:17:44;3.50;;;2.07;;
11535;SDS011;5824;49.336;8.652;2024-02-04T08:20:11;2.17;;;1.80;;
11535;SDS011;5824;49.336;8.652;2024-02-04T08:22:36;2.60;;;1.63;;
11535;SDS011;5824;49.336;8.652;2024-02-04T08:25:02;2.90;;;2.00;;
11535;SDS011;5824;49.336;8.652;2024-02-04T08:27:29;2.33;;;1.80;;
11535;SDS011;5824;49.336;8.652;2024-02-04T08:29:54;2.53;;;1.60;;
11535;SDS011;5824;49.336;8.652;2024-02-04T08:32:20;4.73;;;3.20;;
11535;SDS011;5824;49.336;8.652;2024-02-04T08:34:46;6.83;;;3.33;;
11535;SDS011;5824;49.336;8.652;2024-02-04T08:37:11;4.27;;;1.50;;
11535;SDS011;5824;49.336;8.652;2024-02-04T08:39:37;3.10;;;2.00;;
11535;SDS011;5824;49.336;8.652;2024-02-04T08:42:03;2.63;;;1.60;;
11535;SDS011;5824;49.336;8.652;2024-02-04T08:44:28;4.37;;;1.80;;
11535;SDS011;5824;49.336;8.652;2024-02-04T08:46:54;3.57;;;1.87;;
11535;SDS011;5824;49.336;8.652;2024-02-04T08:49:20;2.23;;;1.80;;
11535;SDS011;5824;49.336;8.652;2024-02-04T08:51:46;2.00;;;1.80;;
11535;SDS011;5824;49.336;8.652;2024-02-04T08:54:11;2.10;;;1.77;;
11535;SDS011;5824;49.336;8.652;2024-02-04T08:56:37;3.10;;;1.47;;
11535;SDS011;5824;49.336;8.652;2024-02-04T08:59:03;1.73;;;1.60;;
11535;SDS011;5824;49.336;8.652;2024-02-04T09:01:30;2.00;;;1.60;;
11535;SDS011;5824;49.336;8.652;2024-02-04T09:03:56;1.93;;;1.30;;
11535;SDS011;5824;49.336;8.652;2024-02-04T09:06:22;1.90;;;1.63;;
11535;SDS011;5824;49.336;8.652;2024-02-04T09:08:47;2.37;;;1.70;;
11535;SDS011;5824;49.336;8.652;2024-02-04T09:11:12;2.83;;;1.70;;
11535;SDS011;5824;49.336;8.652;2024-02-04T09:13:43;1.90;;;1.60;;
11535;SDS011;5824;49.336;8.652;2024-02-04T09:16:12;1.90;;;1.70;;
11535;SDS011;5824;49.336;8.652;2024-02-04T09:18:38;3.50;;;1.90;;
11535;SDS011;5824;49.336;8.652;2024-02-04T09:21:03;1.93;;;1.67;;
11535;SDS011;5824;49.336;8.652;2024-02-04T09:23:29;2.30;;;1.50;;
11535;SDS011;5824;49.336;8.652;2024-02-04T09:25:54;2.20;;;1.53;;
11535;SDS011;5824;49.336;8.652;2024-02-04T09:28:20;2.10;;;1.70;;
11535;SDS011;5824;49.336;8.652;2024-02-04T09:30:45;2.30;;;1.60;;
11535;SDS011;5824;49.336;8.652;2024-02-04T09:33:11;4.07;;;1.40;;
11535;SDS011;5824;49.336;8.652;2024-02-04T09:35:38;1.40;;;1.30;;
11535;SDS011;5824;49.336;8.652;2024-02-04T09:38:04;1.80;;;1.60;;
11535;SDS011;5824;49.336;8.652;2024-02-04T09:40:29;2.87;;;1.40;;
11535;SDS011;5824;49.336;8.652;2024-02-04T09:42:56;2.07;;;1.67;;
11535;SDS011;5824;49.336;8.652;2024-02-04T09:45:23;3.10;;;1.70;;
11535;SDS011;5824;49.336;8.652;2024-02-04T09:47:48;2.47;;;1.70;;
11535;SDS011;5824;49.336;8.652;2024-02-04T09:50:17;2.67;;;2.23;;
11535;SDS011;5824;49.336;8.652;2024-02-04T09:52:44;2.63;;;1.80;;
11535;SDS011;5824;49.336;8.652;2024-02-04T09:55:14;1.70;;;1.40;;
11535;SDS011;5824;49.336;8.652;2024-02-04T09:57:42;3.10;;;1.97;;
11535;SDS011;5824;49.336;8.652;2024-02-04T10:00:09;4.60;;;1.67;;
11535;SDS011;5824;49.336;8.652;2024-02-04T10:02:35;3.20;;;1.97;;
11535;SDS011;5824;49.336;8.652;2024-02-04T10:05:02;2.10;;;1.50;;
11535;SDS011;5824;49.336;8.652;2024-02-04T10:07:28;3.00;;;1.73;;
11535;SDS011;5824;49.336;8.652;2024-02-04T10:09:54;6.40;;;2.70;;
11535;SDS011;5824;49.336;8.652;2024-02-04T10:12:20;3.50;;;1.87;;
11535;SDS011;5824;49.336;8.652;2024-02-04T10:14:46;4.17;;;2.13;;
11535;SDS011;5824;49.336;8.652;2024-02-04T10:17:13;15.90;;;4.87;;
11535;SDS011;5824;49.336;8.652;2024-02-04T10:19:40;2.70;;;1.60;;
11535;SDS011;5824;49.336;8.652;2024-02-04T10:22:05;2.40;;;1.40;;
11535;SDS011;5824;49.336;8.652;2024-02-04T10:24:31;1.77;;;1.50;;
11535;SDS011;5824;49.336;8.652;2024-02-04T10:26:56;2.83;;;1.50;;
11535;SDS011;5824;49.336;8.652;2024-02-04T10:29:22;1.60;;;1.43;;
11535;SDS011;5824;49.336;8.652;2024-02-04T10:31:48;2.70;;;1.40;;
11535;SDS011;5824;49.336;8.652;2024-02-04T10:34:17;1.67;;;1.30;;
11535;SDS011;5824;49.336;8.652;2024-02-04T10:36:43;1.43;;;1.20;;
11535;SDS011;5824;49.336;8.652;2024-02-04T10:39:09;2.17;;;1.20;;
11535;SDS011;5824;49.336;8.652;2024-02-04T10:41:35;1.30;;;1.20;;
11535;SDS011;5824;49.336;8.652;2024-02-04T10:44:07;2.80;;;1.10;;
11535;SDS011;5824;49.336;8.652;2024-02-04T10:46:35;2.00;;;1.20;;
11535;SDS011;5824;49.336;8.652;2024-02-04T10:49:03;2.27;;;1.40;;
11535;SDS011;5824;49.336;8.652;2024-02-04T10:51:35;1.43;;;1.20;;
11535;SDS011;5824;49.336;8.652;2024-02-04T10:54:01;2.20;;;1.70;;
11535;SDS011;5824;49.336;8.652;2024-02-04T10:56:36;1.93;;;1.20;;
11535;SDS011;5824;49.336;8.652;2024-02-04T10:59:06;3.17;;;1.80;;
11535;SDS011;5824;49.336;8.652;2024-02-04T11:01:32;1.40;;;1.10;;
11535;SDS011;5824;49.336;8.652;2024-02-04T11:03:58;2.00;;;1.30;;
11535;SDS011;5824;49.336;8.652;2024-02-04T11:06:25;1.87;;;1.40;;
11535;SDS011;5824;49.336;8.652;2024-02-04T11:08:52;2.80;;;1.40;;
11535;SDS011;5824;49.336;8.652;2024-02-04T11:11:19;1.40;;;1.20;;
11535;SDS011;5824;49.336;8.652;2024-02-04T11:13:49;3.20;;;2.07;;
11535;SDS011;5824;49.336;8.652;2024-02-04T11:16:21;2.93;;;1.40;;
11535;SDS011;5824;49.336;8.652;2024-02-04T11:19:08;3.37;;;1.70;;
11535;SDS011;5824;49.336;8.652;2024-02-04T11:21:42;1.63;;;1.00;;
11535;SDS011;5824;49.336;8.652;2024-02-04T11:24:40;1.43;;;1.20;;
11535;SDS011;5824;49.336;8.652;2024-02-04T11:27:21;1.57;;;1.10;;
11535;SDS011;5824;49.336;8.652;2024-02-04T11:29:47;1.27;;;1.17;;
11535;SDS011;5824;49.336;8.652;2024-02-04T11:32:12;2.90;;;1.43;;
11535;SDS011;5824;49.336;8.652;2024-02-04T11:34:38;1.20;;;1.00;;
11535;SDS011;5824;49.336;8.652;2024-02-04T11:37:14;1.40;;;1.27;;
11535;SDS011;5824;49.336;8.652;2024-02-04T11:39:50;2.57;;;1.23;;
11535;SDS011;5824;49.336;8.652;2024-02-04T11:42:17;1.90;;;1.23;;
11535;SDS011;5824;49.336;8.652;2024-02-04T11:44:43;1.50;;;1.20;;
11535;SDS011;5824;49.336;8.652;2024-02-04T11:47:10;1.97;;;0.90;;
11535;SDS011;5824;49.336;8.652;2024-02-04T11:49:35;1.37;;;1.00;;
11535;SDS011;5824;49.336;8.652;2024-02-04T11:52:01;1.60;;;1.20;;
11535;SDS011;5824;49.336;8.652;2024-02-04T11:54:27;2.43;;;1.10;;
11535;SDS011;5824;49.336;8.652;2024-02-04T11:56:53;1.40;;;1.07;;
11535;SDS011;5824;49.336;8.652;2024-02-04T11:59:25;3.20;;;2.20;;
11535;SDS011;5824;49.336;8.652;2024-02-04T12:01:55;1.80;;;1.20;;
11535;SDS011;5824;49.336;8.652;2024-02-04T12:04:21;2.33;;;1.30;;
11535;SDS011;5824;49.336;8.652;2024-02-04T12:06:47;1.20;;;1.10;;
11535;SDS011;5824;49.336;8.652;2024-02-04T12:09:15;1.30;;;1.13;;
11535;SDS011;5824;49.336;8.652;2024-02-04T12:11:43;1.50;;;1.13;;
11535;SDS011;5824;49.336;8.652;2024-02-04T12:14:09;2.10;;;1.40;;
11535;SDS011;5824;49.336;8.652;2024-02-04T12:16:35;1.30;;;1.00;;
11535;SDS011;5824;49.336;8.652;2024-02-04T12:19:04;1.17;;;1.00;;
11535;SDS011;5824;49.336;8.652;2024-02-04T12:21:29;3.20;;;1.50;;
11535;SDS011;5824;49.336;8.652;2024-02-04T12:23:55;1.30;;;1.00;;
11535;SDS011;5824;49.336;8.652;2024-02-04T12:26:22;1.97;;;1.20;;
11535;SDS011;5824;49.336;8.652;2024-02-04T12:28:48;1.70;;;1.03;;
11535;SDS011;5824;49.336;8.652;2024-02-04T12:31:21;1.50;;;1.10;;
11535;SDS011;5824;49.336;8.652;2024-02-04T12:33:53;1.80;;;1.10;;
11535;SDS011;5824;49.336;8.652;2024-02-04T12:36:26;1.23;;;1.03;;
11535;SDS011;5824;49.336;8.652;2024-02-04T12:38:56;1.50;;;1.13;;
11535;SDS011;5824;49.336;8.652;2024-02-04T12:41:23;1.43;;;1.23;;
11535;SDS011;5824;49.336;8.652;2024-02-04T12:43:50;1.40;;;1.27;;
11535;SDS011;5824;49.336;8.652;2024-02-04T12:46:17;1.10;;;1.00;;
11535;SDS011;5824;49.336;8.652;2024-02-04T12:48:43;1.73;;;1.10;;
11535;SDS011;5824;49.336;8.652;2024-02-04T12:51:09;1.30;;;1.20;;
11535;SDS011;5824;49.336;8.652;2024-02-04T12:53:36;1.40;;;1.00;;
11535;SDS011;5824;49.336;8.652;2024-02-04T12:56:02;1.77;;;1.20;;
11535;SDS011;5824;49.336;8.652;2024-02-04T12:58:28;1.60;;;1.00;;
11535;SDS011;5824;49.336;8.652;2024-02-04T13:01:00;1.70;;;1.00;;
11535;SDS011;5824;49.336;8.652;2024-02-04T13:03:26;4.90;;;1.10;;
11535;SDS011;5824;49.336;8.652;2024-02-04T13:05:56;1.60;;;1.00;;
11535;SDS011;5824;49.336;8.652;2024-02-04T13:08:23;2.10;;;1.40;;
11535;SDS011;5824;49.336;8.652;2024-02-04T13:10:53;1.30;;;1.10;;
11535;SDS011;5824;49.336;8.652;2024-02-04T13:13:22;2.43;;;1.10;;
11535;SDS011;5824;49.336;8.652;2024-02-04T13:15:51;2.43;;;1.03;;
11535;SDS011;5824;49.336;8.652;2024-02-04T13:18:17;1.13;;;0.90;;
11535;SDS011;5824;49.336;8.652;2024-02-04T13:20:43;1.20;;;0.90;;
11535;SDS011;5824;49.336;8.652;2024-02-04T13:23:10;1.30;;;1.10;;
11535;SDS011;5824;49.336;8.652;2024-02-04T13:25:36;1.77;;;1.10;;
11535;SDS011;5824;49.336;8.652;2024-02-04T13:28:02;2.40;;;1.20;;
11535;SDS011;5824;49.336;8.652;2024-02-04T13:30:28;2.90;;;2.43;;
11535;SDS011;5824;49.336;8.652;2024-02-04T13:32:54;1.63;;;1.40;;
11535;SDS011;5824;49.336;8.652;2024-02-04T13:35:21;1.90;;;1.53;;
11535;SDS011;5824;49.336;8.652;2024-02-04T13:37:48;1.80;;;1.00;;
11535;SDS011;5824;49.336;8.652;2024-02-04T13:40:17;3.57;;;2.00;;
11535;SDS011;5824;49.336;8.652;2024-02-04T13:42:44;5.00;;;2.80;;
11535;SDS011;5824;49.336;8.652;2024-02-04T13:45:10;4.80;;;2.30;;
11535;SDS011;5824;49.336;8.652;2024-02-04T13:47:38;3.50;;;1.60;;
11535;SDS011;5824;49.336;8.652;2024-02-04T13:50:04;2.07;;;1.50;;
11535;SDS011;5824;49.336;8.652;2024-02-04T13:52:30;5.00;;;2.50;;
11535;SDS011;5824;49.336;8.652;2024-02-04T13:54:56;3.00;;;1.50;;
11535;SDS011;5824;49.336;8.652;2024-02-04T13:57:21;1.67;;;1.20;;
11535;SDS011;5824;49.336;8.652;2024-02-04T13:59:47;2.10;;;1.20;;
11535;SDS011;5824;49.336;8.652;2024-02-04T14:02:13;1.20;;;1.10;;
11535;SDS011;5824;49.336;8.652;2024-02-04T14:04:38;1.50;;;1.40;;
11535;SDS011;5824;49.336;8.652;2024-02-04T14:07:04;1.37;;;1.20;;
11535;SDS011;5824;49.336;8.652;2024-02-04T14:09:29;1.97;;;1.43;;
11535;SDS011;5824;49.336;8.652;2024-02-04T14:11:55;1.30;;;1.10;;
11535;SDS011;5824;49.336;8.652;2024-02-04T14:14:22;1.80;;;1.43;;
11535;SDS011;5824;49.336;8.652;2024-02-04T14:16:48;2.90;;;1.30;;
11535;SDS011;5824;49.336;8.652;2024-02-04T14:19:14;4.53;;;2.80;;
11535;SDS011;5824;49.336;8.652;2024-02-04T14:21:42;4.43;;;1.30;;
11535;SDS011;5824;49.336;8.652;2024-02-04T14:24:08;1.47;;;1.27;;
11535;SDS011;5824;49.336;8.652;2024-02-04T14:26:34;2.03;;;1.20;;
11535;SDS011;5824;49.336;8.652;2024-02-04T14:29:00;3.30;;;1.40;;
11535;SDS011;5824;49.336;8.652;2024-02-04T14:31:25;1.93;;;1.33;;
11535;SDS011;5824;49.336;8.652;2024-02-04T14:33:51;2.20;;;1.50;;
11535;SDS011;5824;49.336;8.652;2024-02-04T14:36:16;1.63;;;1.30;;
11535;SDS011;5824;49.336;8.652;2024-02-04T14:38:42;1.50;;;1.30;;
11535;SDS011;5824;49.336;8.652;2024-02-04T14:41:08;1.67;;;1.40;;
11535;SDS011;5824;49.336;8.652;2024-02-04T14:43:34;3.80;;;1.60;;
11535;SDS011;5824;49.336;8.652;2024-02-04T14:46:00;1.93;;;1.47;;
11535;SDS011;5824;49.336;8.652;2024-02-04T14:48:26;2.00;;;1.60;;
11535;SDS011;5824;49.336;8.652;2024-02-04T14:50:51;1.93;;;1.30;;
11535;SDS011;5824;49.336;8.652;2024-02-04T14:53:17;1.70;;;1.17;;
11535;SDS011;5824;49.336;8.652;2024-02-04T14:55:43;1.50;;;1.33;;
11535;SDS011;5824;49.336;8.652;2024-02-04T14:58:08;1.70;;;1.20;;
11535;SDS011;5824;49.336;8.652;2024-02-04T15:00:34;1.50;;;1.30;;
11535;SDS011;5824;49.336;8.652;2024-02-04T15:02:59;2.03;;;1.43;;